createdAt,value
2018-03-08T00:00:08.837Z,12.24
2018-03-08T00:01:18.750Z,12.23
2018-03-08T00:01:40.840Z,12.23
2018-03-08T00:02:02.914Z,12.23
2018-03-08T00:02:24.965Z,12.23
2018-03-08T00:02:47.797Z,12.23
2018-03-08T00:03:09.872Z,12.24
2018-03-08T00:03:32.016Z,12.24
2018-03-08T00:03:54.056Z,12.23
2018-03-08T00:04:16.885Z,12.23
2018-03-08T00:04:38.943Z,12.23
2018-03-08T00:05:01.013Z,12.23
2018-03-08T00:05:23.073Z,12.24
2018-03-08T00:05:45.154Z,12.24
2018-03-08T00:06:07.209Z,12.23
2018-03-08T00:06:29.260Z,12.23
2018-03-08T00:06:51.324Z,12.23
2018-03-08T00:07:14.142Z,12.23
2018-03-08T00:07:36.179Z,12.23
2018-03-08T00:07:59.024Z,12.23
2018-03-08T00:08:21.860Z,12.23
2018-03-08T00:08:43.917Z,12.23
2018-03-08T00:09:05.969Z,12.23
2018-03-08T00:09:28.058Z,12.23
2018-03-08T00:09:50.128Z,12.23
2018-03-08T00:10:12.190Z,12.23
2018-03-08T00:10:34.283Z,12.23
2018-03-08T00:10:56.348Z,12.22
2018-03-08T00:11:18.406Z,12.22
2018-03-08T00:11:40.463Z,12.23
2018-03-08T00:12:02.625Z,12.23
2018-03-08T00:12:25.459Z,12.22
2018-03-08T00:12:48.304Z,12.23
2018-03-08T00:13:10.363Z,12.22
2018-03-08T00:13:32.429Z,12.22
2018-03-08T00:13:55.251Z,12.22
2018-03-08T00:14:17.300Z,12.23
2018-03-08T00:14:39.362Z,12.22
2018-03-08T00:15:01.427Z,12.22
2018-03-08T00:15:23.482Z,12.22
2018-03-08T00:15:45.538Z,12.22
2018-03-08T00:16:07.746Z,12.22
2018-03-08T00:16:29.803Z,12.21
2018-03-08T00:16:51.853Z,12.21
2018-03-08T00:17:13.968Z,12.22
2018-03-08T00:17:36.026Z,12.22
2018-03-08T00:17:58.856Z,12.22
2018-03-08T00:18:20.911Z,12.21
2018-03-08T00:18:42.971Z,12.22
2018-03-08T00:19:05.051Z,12.22
2018-03-08T00:19:27.130Z,12.22
2018-03-08T00:19:49.180Z,12.22
2018-03-08T00:20:11.242Z,12.22
2018-03-08T00:20:33.284Z,12.22
2018-03-08T00:20:55.353Z,12.22
2018-03-08T00:21:17.432Z,12.21
2018-03-08T00:21:40.251Z,12.21
2018-03-08T00:22:02.326Z,12.22
2018-03-08T00:22:24.412Z,12.21
2018-03-08T00:22:46.468Z,12.21
2018-03-08T00:23:08.550Z,12.21
2018-03-08T00:23:30.597Z,12.21
2018-03-08T00:23:52.651Z,12.21
2018-03-08T00:24:14.672Z,12.21
2018-03-08T00:24:36.725Z,12.21
2018-03-08T00:24:59.019Z,12.21
2018-03-08T00:25:21.841Z,12.21
2018-03-08T00:25:43.927Z,12.21
2018-03-08T00:26:06.034Z,12.21
2018-03-08T00:26:28.105Z,12.21
2018-03-08T00:26:50.924Z,12.21
2018-03-08T00:27:12.977Z,12.21
2018-03-08T00:27:35.065Z,12.20
2018-03-08T00:27:57.135Z,12.21
2018-03-08T00:28:19.193Z,12.20
2018-03-08T00:28:41.260Z,12.21
2018-03-08T00:29:03.310Z,12.21
2018-03-08T00:29:25.372Z,12.20
2018-03-08T00:29:48.213Z,12.19
2018-03-08T00:30:11.030Z,12.20
2018-03-08T00:30:34.011Z,12.20
2018-03-08T00:30:56.072Z,12.20
2018-03-08T00:31:18.128Z,12.21
2018-03-08T00:31:40.186Z,12.21
2018-03-08T00:32:02.227Z,12.20
2018-03-08T00:32:24.309Z,12.20
2018-03-08T00:32:46.404Z,12.20
2018-03-08T00:33:08.452Z,12.20
2018-03-08T00:33:30.497Z,12.21
2018-03-08T00:33:52.570Z,12.21
2018-03-08T00:34:14.625Z,12.21
2018-03-08T00:34:36.690Z,12.21
2018-03-08T00:34:58.764Z,12.21
2018-03-08T00:35:20.862Z,12.21
2018-03-08T00:35:42.905Z,12.21
2018-03-08T00:36:04.990Z,12.21
2018-03-08T00:36:27.041Z,12.20
2018-03-08T00:36:49.991Z,12.20
2018-03-08T00:37:12.817Z,12.20
2018-03-08T00:37:35.639Z,12.20
2018-03-08T00:37:57.711Z,12.20
2018-03-08T00:38:19.775Z,12.20
2018-03-08T00:38:42.614Z,12.20
2018-03-08T00:39:04.674Z,12.21
2018-03-08T00:39:26.744Z,12.20
2018-03-08T00:39:48.821Z,12.20
2018-03-08T00:40:10.892Z,12.20
2018-03-08T00:40:32.931Z,12.20
2018-03-08T00:40:54.986Z,12.20
2018-03-08T00:41:17.047Z,12.20
2018-03-08T00:41:39.922Z,12.19
2018-03-08T00:42:02.074Z,12.19
2018-03-08T00:42:24.139Z,12.20
2018-03-08T00:42:46.222Z,12.19
2018-03-08T00:43:08.365Z,12.20
2018-03-08T00:43:31.202Z,12.19
2018-03-08T00:43:54.051Z,12.20
2018-03-08T00:44:16.100Z,12.20
2018-03-08T00:44:38.160Z,12.19
2018-03-08T00:45:01.023Z,12.19
2018-03-08T00:45:23.110Z,12.19
2018-03-08T00:45:45.950Z,12.19
2018-03-08T00:46:08.789Z,12.19
2018-03-08T00:46:31.610Z,12.19
2018-03-08T00:46:53.663Z,12.19
2018-03-08T00:47:15.717Z,12.18
2018-03-08T00:47:37.920Z,12.18
2018-03-08T00:47:59.978Z,12.18
2018-03-08T00:48:22.084Z,12.18
2018-03-08T00:48:44.154Z,12.19
2018-03-08T00:49:06.237Z,12.19
2018-03-08T00:49:28.292Z,12.19
2018-03-08T00:49:50.346Z,12.19
2018-03-08T00:50:12.422Z,12.19
2018-03-08T00:50:34.473Z,12.18
2018-03-08T00:50:56.523Z,12.18
2018-03-08T00:51:18.571Z,12.19
2018-03-08T00:51:40.626Z,12.19
2018-03-08T00:52:02.687Z,12.19
2018-03-08T00:52:25.629Z,12.19
2018-03-08T00:52:48.451Z,12.19
2018-03-08T00:53:10.519Z,12.19
2018-03-08T00:53:32.596Z,12.18
2018-03-08T00:53:55.431Z,12.19
2018-03-08T00:54:18.250Z,12.18
2018-03-08T00:54:40.312Z,12.18
2018-03-08T00:55:02.363Z,12.18
2018-03-08T00:55:24.424Z,12.18
2018-03-08T00:55:46.477Z,12.18
2018-03-08T00:56:08.529Z,12.18
2018-03-08T00:56:30.574Z,12.18
2018-03-08T00:56:52.635Z,12.19
2018-03-08T00:57:14.685Z,12.18
2018-03-08T00:57:36.743Z,12.19
2018-03-08T00:57:58.833Z,12.19
2018-03-08T00:58:21.696Z,12.19
2018-03-08T00:58:43.792Z,12.19
2018-03-08T00:59:06.609Z,12.18
2018-03-08T00:59:28.682Z,12.19
2018-03-08T00:59:50.749Z,12.18
2018-03-08T01:00:12.838Z,12.18
2018-03-08T01:00:34.897Z,12.17
2018-03-08T01:00:57.759Z,12.17
2018-03-08T01:01:19.813Z,12.17
2018-03-08T01:01:41.883Z,12.18
2018-03-08T01:02:04.074Z,12.18
2018-03-08T01:02:26.134Z,12.18
2018-03-08T01:02:48.205Z,12.18
2018-03-08T01:03:10.264Z,12.17
2018-03-08T01:03:32.342Z,12.17
2018-03-08T01:03:54.453Z,12.17
2018-03-08T01:04:16.517Z,12.17
2018-03-08T01:04:38.674Z,12.17
2018-03-08T01:05:00.717Z,12.16
2018-03-08T01:05:22.773Z,12.17
2018-03-08T01:05:44.820Z,12.17
2018-03-08T01:06:06.869Z,12.17
2018-03-08T01:06:28.950Z,12.17
2018-03-08T01:06:51.018Z,12.17
2018-03-08T01:07:13.836Z,12.16
2018-03-08T01:07:36.060Z,12.17
2018-03-08T01:07:58.112Z,12.17
2018-03-08T01:08:20.192Z,12.16
2018-03-08T01:08:42.249Z,12.17
2018-03-08T01:09:04.340Z,12.16
2018-03-08T01:09:27.162Z,12.16
2018-03-08T01:09:49.229Z,12.17
2018-03-08T01:10:11.285Z,12.17
2018-03-08T01:10:33.342Z,12.17
2018-03-08T01:10:55.606Z,12.17
2018-03-08T01:11:17.647Z,12.16
2018-03-08T01:11:39.688Z,12.16
2018-03-08T01:12:02.491Z,12.15
2018-03-08T01:12:24.557Z,12.16
2018-03-08T01:12:46.608Z,12.17
2018-03-08T01:13:08.654Z,12.16
2018-03-08T01:13:30.706Z,12.16
2018-03-08T01:13:52.754Z,12.15
2018-03-08T01:14:14.836Z,12.16
2018-03-08T01:14:36.889Z,12.15
2018-03-08T01:14:58.944Z,12.16
2018-03-08T01:15:21.744Z,12.15
2018-03-08T01:15:43.889Z,12.15
2018-03-08T01:16:05.949Z,12.16
2018-03-08T01:16:28.039Z,12.15
2018-03-08T01:16:50.870Z,12.15
2018-03-08T01:17:13.689Z,12.15
2018-03-08T01:17:36.516Z,12.16
2018-03-08T01:17:58.569Z,12.15
2018-03-08T01:18:21.381Z,12.16
2018-03-08T01:18:43.451Z,12.16
2018-03-08T01:19:05.522Z,12.16
2018-03-08T01:19:27.731Z,12.16
2018-03-08T01:19:49.795Z,12.15
2018-03-08T01:20:11.863Z,12.16
2018-03-08T01:20:33.928Z,12.15
2018-03-08T01:20:56.020Z,12.16
2018-03-08T01:21:18.841Z,12.16
2018-03-08T01:21:40.923Z,12.16
2018-03-08T01:22:02.982Z,12.16
2018-03-08T01:22:25.904Z,12.16
2018-03-08T01:22:47.965Z,12.15
2018-03-08T01:23:10.019Z,12.15
2018-03-08T01:23:32.063Z,12.16
2018-03-08T01:23:54.137Z,12.16
2018-03-08T01:24:16.210Z,12.16
2018-03-08T01:24:39.130Z,12.15
2018-03-08T01:25:01.180Z,12.15
2018-03-08T01:25:23.242Z,12.15
2018-03-08T01:25:45.455Z,12.15
2018-03-08T01:26:07.522Z,12.15
2018-03-08T01:26:30.430Z,12.15
2018-03-08T01:26:52.490Z,12.15
2018-03-08T01:27:15.468Z,12.14
2018-03-08T01:27:37.542Z,12.15
2018-03-08T01:28:00.376Z,12.14
2018-03-08T01:28:23.190Z,12.14
2018-03-08T01:28:45.356Z,12.14
2018-03-08T02:12:53.881Z,12.12
2018-03-08T02:13:15.936Z,12.11
2018-03-08T02:13:38.885Z,12.12
2018-03-08T02:14:00.959Z,12.11
2018-03-08T02:14:23.014Z,12.11
2018-03-08T02:14:45.838Z,12.10
2018-03-08T02:15:08.662Z,12.11
2018-03-08T02:15:30.705Z,12.11
2018-03-08T02:15:52.773Z,12.11
2018-03-08T02:16:14.836Z,12.11
2018-03-08T02:16:37.698Z,12.11
2018-03-08T02:16:59.753Z,12.12
2018-03-08T02:17:21.806Z,12.11
2018-03-08T02:17:44.617Z,12.11
2018-03-08T02:18:06.677Z,12.12
2018-03-08T02:18:28.809Z,12.11
2018-03-08T02:18:50.873Z,12.12
2018-03-08T02:19:12.928Z,12.11
2018-03-08T02:19:34.998Z,12.11
2018-03-08T02:19:57.060Z,12.12
2018-03-08T02:20:19.114Z,12.11
2018-03-08T02:20:41.165Z,12.11
2018-03-08T02:21:03.981Z,12.11
2018-03-08T02:21:26.051Z,12.11
2018-03-08T02:21:48.134Z,12.11
2018-03-08T02:22:10.188Z,12.11
2018-03-08T02:22:32.210Z,12.11
2018-03-08T02:22:54.253Z,12.11
2018-03-08T02:23:16.309Z,12.11
2018-03-08T02:23:39.144Z,12.11
2018-03-08T02:24:01.969Z,12.11
2018-03-08T02:24:24.018Z,12.10
2018-03-08T02:24:46.076Z,12.10
2018-03-08T02:25:08.141Z,12.11
2018-03-08T02:25:30.961Z,12.11
2018-03-08T02:25:53.789Z,12.11
2018-03-08T02:26:15.865Z,12.10
2018-03-08T02:26:37.906Z,12.10
2018-03-08T02:27:00.009Z,12.11
2018-03-08T02:27:22.063Z,12.11
2018-03-08T02:27:44.881Z,12.11
2018-03-08T02:28:06.948Z,12.11
2018-03-08T02:28:29.009Z,12.11
2018-03-08T02:28:51.070Z,12.11
2018-03-08T02:29:13.132Z,12.11
2018-03-08T02:29:35.184Z,12.11
2018-03-08T02:29:57.248Z,12.11
2018-03-08T02:30:19.292Z,12.10
2018-03-08T02:30:41.353Z,12.10
2018-03-08T02:31:04.165Z,12.10
2018-03-08T02:31:26.237Z,12.10
2018-03-08T02:31:48.301Z,12.10
2018-03-08T02:32:10.376Z,12.10
2018-03-08T02:32:32.448Z,12.10
2018-03-08T02:32:55.284Z,12.11
2018-03-08T02:33:18.114Z,12.11
2018-03-08T02:33:40.940Z,12.10
2018-03-08T02:34:02.998Z,12.10
2018-03-08T02:34:25.061Z,12.11
2018-03-08T02:34:47.092Z,12.12
2018-03-08T02:35:09.178Z,12.11
2018-03-08T02:35:31.226Z,12.10
2018-03-08T02:35:53.288Z,12.11
2018-03-08T02:36:15.332Z,12.10
2018-03-08T02:36:37.384Z,12.10
2018-03-08T02:37:00.199Z,12.09
2018-03-08T02:37:22.286Z,12.10
2018-03-08T02:37:44.355Z,12.10
2018-03-08T02:38:07.177Z,12.10
2018-03-08T02:38:29.240Z,12.10
2018-03-08T02:38:51.301Z,12.10
2018-03-08T02:39:13.355Z,12.10
2018-03-08T02:39:36.190Z,12.10
2018-03-08T02:39:59.025Z,12.10
2018-03-08T02:40:21.846Z,12.10
2018-03-08T02:40:44.667Z,12.11
2018-03-08T02:41:06.731Z,12.10
2018-03-08T02:41:28.848Z,12.10
2018-03-08T02:41:50.908Z,12.10
2018-03-08T02:42:12.957Z,12.10
2018-03-08T02:42:35.821Z,12.10
2018-03-08T02:42:57.885Z,12.10
2018-03-08T02:43:20.119Z,12.10
2018-03-08T02:43:42.175Z,12.10
2018-03-08T02:44:04.229Z,12.10
2018-03-08T02:44:26.286Z,12.11
2018-03-08T02:44:49.113Z,12.09
2018-03-08T02:45:11.924Z,12.10
2018-03-08T02:45:33.979Z,12.10
2018-03-08T02:45:56.798Z,12.10
2018-03-08T02:46:19.613Z,12.10
2018-03-08T02:46:41.671Z,12.10
2018-03-08T02:47:03.731Z,12.10
2018-03-08T02:47:25.792Z,12.10
2018-03-08T02:47:48.668Z,12.10
2018-03-08T02:48:10.716Z,12.09
2018-03-08T02:48:33.541Z,12.10
2018-03-08T02:48:55.657Z,12.10
2018-03-08T02:49:17.735Z,12.09
2018-03-08T02:49:39.789Z,12.09
2018-03-08T02:50:01.860Z,12.09
2018-03-08T02:50:23.925Z,12.10
2018-03-08T02:50:45.983Z,12.10
2018-03-08T02:51:08.815Z,12.10
2018-03-08T02:51:31.657Z,12.10
2018-03-08T02:51:54.478Z,12.09
2018-03-08T02:52:17.292Z,12.09
2018-03-08T02:52:39.340Z,12.08
2018-03-08T02:53:02.317Z,12.09
2018-03-08T02:53:24.368Z,12.09
2018-03-08T02:53:46.440Z,12.09
2018-03-08T02:54:08.497Z,12.09
2018-03-08T02:54:30.588Z,12.09
2018-03-08T02:54:52.645Z,12.09
2018-03-08T02:55:14.700Z,12.09
2018-03-08T02:55:36.750Z,12.08
2018-03-08T02:55:58.805Z,12.09
2018-03-08T02:56:20.862Z,12.08
2018-03-08T02:56:42.922Z,12.09
2018-03-08T02:57:04.971Z,12.09
2018-03-08T02:57:27.782Z,12.09
2018-03-08T02:57:49.883Z,12.09
2018-03-08T02:58:11.977Z,12.09
2018-03-08T02:58:34.049Z,12.09
2018-03-08T02:58:56.862Z,12.09
2018-03-08T02:59:18.939Z,12.10
2018-03-08T02:59:41.026Z,12.08
2018-03-08T03:00:03.863Z,12.08
2018-03-08T03:00:26.712Z,12.08
2018-03-08T03:00:48.774Z,12.09
2018-03-08T03:01:10.827Z,12.09
2018-03-08T03:01:33.620Z,12.09
2018-03-08T03:01:55.774Z,12.08
2018-03-08T03:02:18.590Z,12.08
2018-03-08T03:02:40.649Z,12.08
2018-03-08T03:03:03.469Z,12.09
2018-03-08T03:03:26.316Z,12.08
2018-03-08T03:03:49.146Z,12.08
2018-03-08T03:04:11.967Z,12.09
2018-03-08T03:04:34.780Z,12.08
2018-03-08T03:04:56.842Z,12.08
2018-03-08T03:05:18.916Z,12.09
2018-03-08T03:05:40.978Z,12.08
2018-03-08T03:06:03.037Z,12.09
2018-03-08T03:06:25.096Z,12.09
2018-03-08T03:06:47.927Z,12.08
2018-03-08T03:07:10.770Z,12.08
2018-03-08T03:07:33.579Z,12.08
2018-03-08T03:07:55.631Z,12.09
2018-03-08T03:08:18.445Z,12.09
2018-03-08T03:08:40.542Z,12.10
2018-03-08T03:09:02.787Z,12.08
2018-03-08T03:09:24.855Z,12.09
2018-03-08T03:09:46.914Z,12.08
2018-03-08T03:10:09.746Z,12.08
2018-03-08T03:10:31.808Z,12.07
2018-03-08T03:10:53.863Z,12.07
2018-03-08T03:11:15.915Z,12.08
2018-03-08T03:11:38.728Z,12.07
2018-03-08T03:12:00.780Z,12.08
2018-03-08T03:12:23.604Z,12.07
2018-03-08T03:12:46.429Z,12.07
2018-03-08T03:13:08.491Z,12.08
2018-03-08T03:13:30.549Z,12.08
2018-03-08T03:13:52.661Z,12.07
2018-03-08T03:14:14.708Z,12.08
2018-03-08T03:14:37.542Z,12.08
2018-03-08T03:15:00.368Z,12.07
2018-03-08T03:15:23.190Z,12.06
2018-03-08T03:15:45.244Z,12.07
2018-03-08T03:16:07.310Z,12.07
2018-03-08T03:16:29.357Z,12.08
2018-03-08T03:16:52.192Z,12.09
2018-03-08T03:17:14.255Z,12.08
2018-03-08T03:17:36.316Z,12.08
2018-03-08T03:17:58.383Z,12.08
2018-03-08T03:18:20.436Z,12.08
2018-03-08T03:18:42.489Z,12.08
2018-03-08T03:19:05.347Z,12.08
2018-03-08T03:19:27.395Z,12.07
2018-03-08T03:19:49.572Z,12.07
2018-03-08T03:20:11.622Z,12.08
2018-03-08T03:20:33.688Z,12.07
2018-03-08T03:20:55.757Z,12.08
2018-03-08T03:21:17.810Z,12.07
2018-03-08T03:21:39.875Z,12.08
2018-03-08T03:22:01.923Z,12.08
2018-03-08T03:22:23.975Z,12.07
2018-03-08T03:22:46.809Z,12.07
2018-03-08T03:23:09.614Z,12.08
2018-03-08T03:23:31.652Z,12.08
2018-03-08T03:23:54.473Z,12.08
2018-03-08T03:24:16.554Z,12.08
2018-03-08T03:24:38.602Z,12.08
2018-03-08T03:25:00.666Z,12.07
2018-03-08T03:25:22.733Z,12.06
2018-03-08T03:25:44.786Z,12.07
2018-03-08T03:26:07.618Z,12.08
2018-03-08T03:26:30.433Z,12.06
2018-03-08T03:26:52.472Z,12.06
2018-03-08T03:27:15.272Z,12.06
2018-03-08T03:27:37.341Z,12.06
2018-03-08T03:27:59.410Z,12.06
2018-03-08T03:28:21.701Z,12.06
2018-03-08T03:28:43.979Z,12.06
2018-03-08T03:29:06.802Z,12.06
2018-03-08T03:29:29.685Z,12.06
2018-03-08T03:29:51.745Z,12.06
2018-03-08T03:30:13.794Z,12.05
2018-03-08T03:30:36.618Z,12.06
2018-03-08T03:30:59.439Z,12.06
2018-03-08T03:31:21.512Z,12.07
2018-03-08T03:31:43.579Z,12.05
2018-03-08T03:32:06.404Z,12.05
2018-03-08T03:32:28.454Z,12.07
2018-03-08T03:32:51.282Z,12.06
2018-03-08T03:33:14.206Z,12.05
2018-03-08T03:33:36.279Z,12.07
2018-03-08T03:33:58.333Z,12.05
2018-03-08T03:34:20.402Z,12.05
2018-03-08T03:34:42.481Z,12.05
2018-03-08T03:35:05.301Z,12.06
2018-03-08T03:35:27.387Z,12.06
2018-03-08T03:35:49.448Z,12.05
2018-03-08T03:36:12.300Z,12.05
2018-03-08T03:36:35.135Z,12.05
2018-03-08T03:36:57.963Z,12.05
2018-03-08T03:37:20.817Z,12.05
2018-03-08T03:37:42.869Z,12.05
2018-03-08T03:38:04.920Z,12.05
2018-03-08T03:38:28.487Z,12.05
2018-03-08T03:38:51.296Z,12.05
2018-03-08T03:39:13.335Z,12.05
2018-03-08T03:39:36.148Z,12.05
2018-03-08T03:39:58.235Z,12.05
2018-03-08T03:40:20.289Z,12.05
2018-03-08T03:40:42.364Z,12.05
2018-03-08T03:41:04.412Z,12.06
2018-03-08T03:41:26.465Z,12.05
2018-03-08T03:41:49.276Z,12.05
2018-03-08T03:42:11.347Z,12.07
2018-03-08T03:42:33.408Z,12.05
2018-03-08T03:42:55.477Z,12.05
2018-03-08T03:43:17.657Z,12.06
2018-03-08T03:43:40.479Z,12.05
2018-03-08T03:44:02.538Z,12.05
2018-03-08T03:44:24.609Z,12.05
2018-03-08T03:44:46.672Z,12.05
2018-03-08T03:45:08.748Z,12.05
2018-03-08T03:45:30.824Z,12.05
2018-03-08T03:45:52.893Z,12.04
2018-03-08T03:46:14.999Z,12.05
2018-03-08T03:46:37.054Z,12.05
2018-03-08T03:46:59.874Z,12.06
2018-03-08T03:47:22.698Z,12.05
2018-03-08T03:47:45.522Z,12.05
2018-03-08T03:48:07.640Z,12.05
2018-03-08T03:48:29.687Z,12.05
2018-03-08T03:48:52.515Z,12.05
2018-03-08T03:49:15.321Z,12.05
2018-03-08T03:49:37.385Z,12.05
2018-03-08T03:50:00.205Z,12.05
2018-03-08T03:50:23.044Z,12.05
2018-03-08T03:50:45.868Z,12.05
2018-03-08T03:51:08.698Z,12.05
2018-03-08T03:51:30.762Z,12.05
2018-03-08T03:51:52.809Z,12.05
2018-03-08T03:52:14.870Z,12.05
2018-03-08T03:52:37.768Z,12.05
2018-03-08T03:52:59.892Z,12.05
2018-03-08T03:53:21.940Z,12.05
2018-03-08T03:53:44.745Z,12.06
2018-03-08T03:54:06.816Z,12.05
2018-03-08T03:54:28.949Z,12.04
2018-03-08T03:54:51.005Z,12.04
2018-03-08T03:55:13.058Z,12.05
2018-03-08T03:55:35.164Z,12.04
2018-03-08T03:55:57.985Z,12.04
2018-03-08T03:56:20.814Z,12.04
2018-03-08T03:56:42.880Z,12.04
2018-03-08T03:57:04.944Z,12.05
2018-03-08T03:57:27.760Z,12.04
2018-03-08T03:57:49.813Z,12.05
2018-03-08T03:58:12.633Z,12.04
2018-03-08T03:58:34.684Z,12.04
2018-03-08T03:58:56.735Z,12.04
2018-03-08T03:59:18.796Z,12.04
2018-03-08T03:59:41.717Z,12.04
2018-03-08T04:00:03.796Z,12.04
2018-03-08T04:00:25.941Z,12.04
2018-03-08T04:00:48.018Z,12.04
2018-03-08T04:01:10.084Z,12.05
2018-03-08T04:01:32.193Z,12.05
2018-03-08T04:01:54.240Z,12.05
2018-03-08T04:02:17.053Z,12.04
2018-03-08T04:02:39.105Z,12.04
2018-03-08T04:03:01.967Z,12.04
2018-03-08T04:03:24.029Z,12.04
2018-03-08T04:03:46.097Z,12.03
2018-03-08T04:04:08.304Z,12.04
2018-03-08T04:04:31.129Z,12.04
2018-03-08T04:04:54.103Z,12.04
2018-03-08T04:05:16.175Z,12.03
2018-03-08T04:05:38.994Z,12.04
2018-03-08T04:06:01.380Z,12.04
2018-03-08T04:06:23.455Z,12.04
2018-03-08T04:06:46.334Z,12.04
2018-03-08T04:07:08.386Z,12.04
2018-03-08T04:51:16.956Z,12.02
2018-03-08T04:51:39.014Z,12.03
2018-03-08T04:52:01.836Z,12.03
2018-03-08T04:52:24.031Z,12.02
2018-03-08T04:52:46.072Z,12.02
2018-03-08T04:53:08.117Z,12.02
2018-03-08T04:53:30.942Z,12.02
2018-03-08T04:53:53.822Z,12.02
2018-03-08T04:54:15.877Z,12.03
2018-03-08T04:54:37.951Z,12.02
2018-03-08T04:55:00.012Z,12.02
2018-03-08T04:55:22.068Z,12.02
2018-03-08T04:55:44.132Z,12.02
2018-03-08T04:56:06.194Z,12.02
2018-03-08T04:56:29.061Z,12.02
2018-03-08T04:56:51.116Z,12.03
2018-03-08T04:57:13.173Z,12.02
2018-03-08T04:57:35.229Z,12.02
2018-03-08T04:57:57.295Z,12.03
2018-03-08T04:58:20.132Z,12.01
2018-03-08T04:58:42.279Z,12.01
2018-03-08T04:59:04.331Z,12.02
2018-03-08T04:59:26.385Z,12.02
2018-03-08T04:59:49.191Z,12.02
2018-03-08T05:00:11.240Z,12.01
2018-03-08T05:00:34.072Z,12.02
2018-03-08T05:00:56.896Z,12.01
2018-03-08T05:01:19.730Z,12.01
2018-03-08T05:01:42.576Z,12.01
2018-03-08T05:02:05.389Z,12.01
2018-03-08T05:02:28.955Z,12.02
2018-03-08T05:02:51.793Z,12.02
2018-03-08T05:03:14.620Z,12.01
2018-03-08T05:03:37.464Z,12.01
2018-03-08T05:04:00.277Z,12.01
2018-03-08T05:04:23.101Z,12.02
2018-03-08T05:04:45.147Z,12.02
2018-03-08T05:05:07.980Z,12.01
2018-03-08T05:05:30.801Z,12.02
2018-03-08T05:05:52.856Z,12.01
2018-03-08T05:06:14.930Z,12.01
2018-03-08T05:06:37.009Z,12.02
2018-03-08T05:06:59.092Z,12.01
2018-03-08T05:10:03.416Z,12.00
2018-03-08T05:10:25.454Z,12.01
2018-03-08T05:10:47.646Z,12.01
2018-03-08T05:11:10.629Z,12.01
2018-03-08T05:11:32.697Z,12.02
2018-03-08T05:11:55.535Z,12.02
2018-03-08T05:12:17.828Z,12.02
2018-03-08T05:12:40.702Z,12.02
2018-03-08T05:13:03.529Z,12.02
2018-03-08T05:13:26.356Z,12.01
2018-03-08T05:13:48.445Z,12.02
2018-03-08T05:14:10.503Z,12.02
2018-03-08T05:14:33.383Z,12.02
2018-03-08T05:14:55.645Z,12.02
2018-03-08T05:15:17.684Z,12.01
2018-03-08T05:15:40.524Z,12.01
2018-03-08T05:16:03.357Z,12.01
2018-03-08T05:16:26.367Z,12.02
2018-03-08T05:16:48.438Z,12.01
2018-03-08T05:17:10.488Z,12.01
2018-03-08T05:17:32.574Z,12.01
2018-03-08T05:17:54.736Z,12.01
2018-03-08T05:18:16.812Z,12.01
2018-03-08T05:18:38.870Z,12.01
2018-03-08T05:19:00.918Z,12.01
2018-03-08T05:19:23.905Z,12.01
2018-03-08T05:19:46.050Z,12.01
2018-03-08T05:20:08.103Z,12.01
2018-03-08T05:20:30.178Z,12.01
2018-03-08T05:20:52.261Z,12.01
2018-03-08T05:21:14.347Z,12.01
2018-03-08T05:21:37.168Z,12.01
2018-03-08T05:21:59.235Z,12.01
2018-03-08T05:22:21.298Z,12.01
2018-03-08T05:22:43.441Z,12.02
2018-03-08T05:23:06.264Z,12.01
2018-03-08T05:23:29.081Z,12.01
2018-03-08T05:23:51.139Z,12.01
2018-03-08T05:24:13.206Z,12.01
2018-03-08T05:24:35.255Z,12.00
2018-03-08T05:24:58.076Z,12.00
2018-03-08T05:25:20.143Z,12.00
2018-03-08T05:25:42.216Z,12.00
2018-03-08T05:26:05.057Z,12.01
2018-03-08T05:26:27.131Z,12.01
2018-03-08T05:26:49.177Z,12.00
2018-03-08T05:27:11.233Z,12.00
2018-03-08T05:27:33.299Z,12.01
2018-03-08T05:27:55.403Z,12.01
2018-03-08T05:28:17.464Z,12.01
2018-03-08T05:28:40.293Z,12.00
2018-03-08T05:29:03.129Z,12.00
2018-03-08T05:29:26.002Z,12.01
2018-03-08T05:29:48.162Z,12.01
2018-03-08T05:30:10.214Z,12.01
2018-03-08T05:30:33.057Z,12.02
2018-03-08T05:30:55.198Z,12.01
2018-03-08T05:31:17.210Z,12.01
2018-03-08T05:31:39.274Z,12.01
2018-03-08T05:32:01.350Z,12.01
2018-03-08T05:32:23.400Z,12.01
2018-03-08T05:32:45.455Z,12.01
2018-03-08T05:33:08.322Z,12.00
2018-03-08T05:33:30.396Z,12.01
2018-03-08T05:33:53.233Z,12.00
2018-03-08T05:34:16.049Z,12.02
2018-03-08T05:34:38.093Z,12.00
2018-03-08T05:35:00.925Z,12.01
2018-03-08T05:35:23.762Z,12.01
2018-03-08T05:35:46.590Z,12.00
2018-03-08T05:36:09.414Z,12.00
2018-03-08T05:36:31.482Z,12.01
2018-03-08T05:36:53.537Z,12.00
2018-03-08T05:37:15.751Z,12.01
2018-03-08T05:37:37.869Z,12.01
2018-03-08T05:37:59.916Z,12.01
2018-03-08T05:38:22.763Z,12.01
2018-03-08T05:38:45.599Z,12.01
2018-03-08T05:39:08.527Z,12.01
2018-03-08T05:39:31.345Z,12.01
2018-03-08T05:39:53.401Z,12.01
2018-03-08T05:40:15.470Z,12.01
2018-03-08T05:40:37.536Z,12.01
2018-03-08T05:40:59.601Z,12.01
2018-03-08T05:41:21.651Z,12.01
2018-03-08T05:41:44.478Z,12.01
2018-03-08T05:42:07.319Z,11.99
2018-03-08T05:42:30.150Z,11.99
2018-03-08T05:42:52.976Z,12.00
2018-03-08T05:43:15.053Z,11.99
2018-03-08T05:43:37.133Z,11.99
2018-03-08T05:43:59.961Z,12.00
2018-03-08T05:44:22.777Z,12.00
2018-03-08T05:44:44.824Z,12.00
2018-03-08T05:45:06.902Z,12.01
2018-03-08T05:45:28.968Z,11.99
2018-03-08T05:45:51.037Z,11.99
2018-03-08T05:46:13.083Z,11.99
2018-03-08T05:46:35.903Z,12.00
2018-03-08T05:46:57.974Z,11.99
2018-03-08T05:47:20.124Z,12.00
2018-03-08T05:47:42.168Z,12.00
2018-03-08T05:48:04.998Z,12.00
2018-03-08T05:48:27.826Z,12.00
2018-03-08T05:48:50.029Z,12.00
2018-03-08T05:49:12.109Z,12.00
2018-03-08T05:49:34.163Z,12.00
2018-03-08T05:49:56.234Z,12.00
2018-03-08T05:50:18.300Z,12.00
2018-03-08T05:50:40.422Z,12.00
2018-03-08T05:51:02.507Z,12.00
2018-03-08T05:51:24.557Z,11.99
2018-03-08T05:51:46.622Z,12.00
2018-03-08T05:52:08.704Z,12.00
2018-03-08T05:52:30.789Z,12.00
2018-03-08T05:52:52.841Z,11.99
2018-03-08T05:53:14.913Z,12.00
2018-03-08T05:53:36.961Z,12.00
2018-03-08T05:53:59.051Z,12.00
2018-03-08T05:54:21.153Z,12.00
2018-03-08T05:54:43.964Z,12.00
2018-03-08T05:55:06.791Z,12.00
2018-03-08T05:55:29.622Z,11.99
2018-03-08T05:55:52.441Z,12.00
2018-03-08T05:56:14.484Z,12.01
2018-03-08T05:56:37.294Z,12.00
2018-03-08T05:56:59.369Z,12.01
2018-03-08T05:57:21.431Z,12.00
2018-03-08T05:57:43.606Z,12.01
2018-03-08T05:58:05.760Z,12.00
2018-03-08T05:58:27.843Z,12.00
2018-03-08T05:58:49.902Z,12.00
2018-03-08T05:59:11.982Z,12.00
2018-03-08T05:59:34.080Z,12.00
2018-03-08T05:59:56.148Z,12.00
2018-03-08T06:00:18.231Z,12.00
2018-03-08T06:00:40.289Z,12.00
2018-03-08T06:01:02.362Z,11.99
2018-03-08T06:01:24.418Z,11.99
2018-03-08T06:01:46.465Z,11.99
2018-03-08T06:02:09.300Z,11.98
2018-03-08T06:02:32.136Z,11.99
2018-03-08T06:02:54.965Z,11.99
2018-03-08T06:03:17.085Z,11.99
2018-03-08T06:03:39.920Z,11.99
2018-03-08T06:04:02.731Z,11.99
2018-03-08T06:04:24.850Z,11.99
2018-03-08T06:04:46.893Z,11.99
2018-03-08T06:05:09.742Z,11.99
2018-03-08T06:05:31.797Z,11.98
2018-03-08T06:05:53.861Z,11.99
2018-03-08T06:06:16.680Z,11.98
2018-03-08T06:06:38.770Z,11.99
2018-03-08T06:07:00.866Z,11.99
2018-03-08T06:07:22.967Z,11.99
2018-03-08T06:07:45.047Z,11.99
2018-03-08T06:08:07.093Z,11.99
2018-03-08T06:08:29.919Z,11.99
2018-03-08T06:08:52.809Z,11.99
2018-03-08T06:09:14.861Z,11.99
2018-03-08T06:09:36.956Z,11.99
2018-03-08T06:09:59.016Z,11.98
2018-03-08T06:10:21.828Z,11.98
2018-03-08T06:10:43.891Z,11.98
2018-03-08T06:11:05.954Z,11.98
2018-03-08T06:11:28.017Z,11.99
2018-03-08T06:11:50.123Z,11.97
2018-03-08T06:12:12.948Z,11.97
2018-03-08T06:12:35.771Z,11.98
2018-03-08T06:12:57.825Z,11.98
2018-03-08T06:13:19.899Z,11.98
2018-03-08T06:13:41.989Z,11.98
2018-03-08T06:14:04.043Z,11.99
2018-03-08T06:14:26.276Z,11.98
2018-03-08T06:14:49.302Z,11.98
2018-03-08T06:15:12.874Z,11.99
2018-03-08T06:15:35.692Z,11.99
2018-03-08T06:15:57.757Z,11.98
2018-03-08T06:16:19.809Z,12.00
2018-03-08T06:16:41.890Z,11.99
2018-03-08T06:17:03.953Z,11.98
2018-03-08T06:17:26.025Z,11.98
2018-03-08T06:17:48.110Z,11.98
2018-03-08T06:18:10.905Z,11.98